sensor_id;sensor_type;location;lat;lon;timestamp;pressure;altitude;pressure_sealevel;temperature;humidity
22261;BME280;11299;43.202;27.920;2022-09-01T00:02:23;100823.47;;;23.37;100.00
22261;BME280;11299;43.202;27.920;2022-09-01T00:04:52;100854.56;;;23.66;100.00
22261;BME280;11299;43.202;27.920;2022-09-01T00:07:24;100813.81;;;23.47;100.00
22261;BME280;11299;43.202;27.920;2022-09-01T00:09:50;100874.81;;;23.68;100.00
22261;BME280;11299;43.202;27.920;2022-09-01T00:12:16;100737.59;;;22.92;100.00
22261;BME280;11299;43.202;27.920;2022-09-01T00:14:42;100820.69;;;23.66;100.00
22261;BME280;11299;43.202;27.920;2022-09-01T00:17:09;100848.25;;;23.69;100.00
22261;BME280;11299;43.202;27.920;2022-09-01T00:19:35;100847.72;;;23.76;100.00
22261;BME280;11299;43.202;27.920;2022-09-01T00:22:02;100831.00;;;23.62;100.00
22261;BME280;11299;43.202;27.920;2022-09-01T00:24:28;100700.13;;;22.83;100.00
22261;BME280;11299;43.202;27.920;2022-09-01T00:26:54;100853.91;;;23.69;100.00
22261;BME280;11299;43.202;27.920;2022-09-01T00:29:22;100843.81;;;23.51;100.00
22261;BME280;11299;43.202;27.920;2022-09-01T00:31:48;100844.81;;;23.55;100.00
22261;BME280;11299;43.202;27.920;2022-09-01T00:34:15;100856.91;;;23.64;100.00
22261;BME280;11299;43.202;27.920;2022-09-01T00:36:41;100849.13;;;23.53;100.00
22261;BME280;11299;43.202;27.920;2022-09-01T00:39:08;100839.72;;;23.49;100.00
22261;BME280;11299;43.202;27.920;2022-09-01T00:41:36;100840.56;;;23.41;100.00
22261;BME280;11299;43.202;27.920;2022-09-01T00:44:09;100853.34;;;23.38;100.00
22261;BME280;11299;43.202;27.920;2022-09-01T00:46:42;100853.53;;;23.33;100.00
22261;BME280;11299;43.202;27.920;2022-09-01T00:49:13;100863.47;;;23.22;100.00
22261;BME280;11299;43.202;27.920;2022-09-01T00:51:43;100925.38;;;23.27;100.00
22261;BME280;11299;43.202;27.920;2022-09-01T00:54:14;100831.28;;;23.06;100.00
22261;BME280;11299;43.202;27.920;2022-09-01T00:56:42;100887.19;;;23.21;100.00
22261;BME280;11299;43.202;27.920;2022-09-01T00:59:11;100848.53;;;23.21;100.00
22261;BME280;11299;43.202;27.920;2022-09-01T01:01:37;100830.81;;;23.04;100.00
22261;BME280;11299;43.202;27.920;2022-09-01T01:04:05;100846.69;;;23.17;100.00
22261;BME280;11299;43.202;27.920;2022-09-01T01:06:31;100819.50;;;23.04;100.00
22261;BME280;11299;43.202;27.920;2022-09-01T01:08:58;100839.06;;;23.09;100.00
22261;BME280;11299;43.202;27.920;2022-09-01T01:11:29;100862.31;;;23.06;100.00
22261;BME280;11299;43.202;27.920;2022-09-01T01:13:58;100855.53;;;23.07;100.00
22261;BME280;11299;43.202;27.920;2022-09-01T01:16:26;100843.78;;;22.88;100.00
22261;BME280;11299;43.202;27.920;2022-09-01T01:18:53;100862.50;;;22.92;100.00
22261;BME280;11299;43.202;27.920;2022-09-01T01:21:25;100861.50;;;22.97;100.00
22261;BME280;11299;43.202;27.920;2022-09-01T01:24:33;100433.78;;;20.42;100.00
22261;BME280;11299;43.202;27.920;2022-09-01T01:26:59;100857.69;;;22.93;100.00
22261;BME280;11299;43.202;27.920;2022-09-01T01:29:26;100867.81;;;22.68;100.00
22261;BME280;11299;43.202;27.920;2022-09-01T01:31:54;100852.06;;;22.76;100.00
22261;BME280;11299;43.202;27.920;2022-09-01T01:34:19;100791.31;;;22.35;100.00
22261;BME280;11299;43.202;27.920;2022-09-01T01:36:47;100846.09;;;22.77;100.00
22261;BME280;11299;43.202;27.920;2022-09-01T01:39:20;100849.41;;;22.71;100.00
22261;BME280;11299;43.202;27.920;2022-09-01T01:41:47;100835.31;;;22.71;100.00
22261;BME280;11299;43.202;27.920;2022-09-01T01:44:16;100831.19;;;22.60;100.00
22261;BME280;11299;43.202;27.920;2022-09-01T01:46:48;100706.41;;;21.77;100.00
22261;BME280;11299;43.202;27.920;2022-09-01T01:49:16;100850.22;;;22.71;100.00
22261;BME280;11299;43.202;27.920;2022-09-01T01:51:46;100843.94;;;22.57;100.00
22261;BME280;11299;43.202;27.920;2022-09-01T01:54:13;100874.13;;;22.65;100.00
22261;BME280;11299;43.202;27.920;2022-09-01T01:56:39;100827.88;;;22.58;100.00
22261;BME280;11299;43.202;27.920;2022-09-01T01:59:07;100861.00;;;22.69;100.00
22261;BME280;11299;43.202;27.920;2022-09-01T02:01:37;100869.13;;;22.62;100.00
22261;BME280;11299;43.202;27.920;2022-09-01T02:04:03;100845.69;;;22.44;100.00
22261;BME280;11299;43.202;27.920;2022-09-01T02:06:33;100871.94;;;22.54;100.00
22261;BME280;11299;43.202;27.920;2022-09-01T02:08:59;100870.44;;;22.56;100.00
22261;BME280;11299;43.202;27.920;2022-09-01T02:11:29;100881.03;;;22.51;100.00
22261;BME280;11299;43.202;27.920;2022-09-01T02:13:58;100853.69;;;22.42;100.00
22261;BME280;11299;43.202;27.920;2022-09-01T02:16:26;100855.00;;;22.45;100.00
22261;BME280;11299;43.202;27.920;2022-09-01T02:18:52;100830.44;;;22.28;100.00
22261;BME280;11299;43.202;27.920;2022-09-01T02:21:20;100853.47;;;22.39;100.00
22261;BME280;11299;43.202;27.920;2022-09-01T02:23:49;100875.53;;;22.28;100.00
22261;BME280;11299;43.202;27.920;2022-09-01T02:26:21;100845.00;;;22.22;100.00
22261;BME280;11299;43.202;27.920;2022-09-01T02:28:48;100856.97;;;22.27;100.00
22261;BME280;11299;43.202;27.920;2022-09-01T02:31:13;100835.75;;;22.21;100.00
22261;BME280;11299;43.202;27.920;2022-09-01T02:33:40;100825.63;;;22.12;100.00
22261;BME280;11299;43.202;27.920;2022-09-01T02:36:12;100840.22;;;22.22;100.00
22261;BME280;11299;43.202;27.920;2022-09-01T02:38:40;100827.44;;;22.16;100.00
22261;BME280;11299;43.202;27.920;2022-09-01T02:41:10;100844.31;;;22.16;100.00
22261;BME280;11299;43.202;27.920;2022-09-01T02:43:37;100833.72;;;22.13;100.00
22261;BME280;11299;43.202;27.920;2022-09-01T02:46:04;100714.25;;;21.41;100.00
22261;BME280;11299;43.202;27.920;2022-09-01T02:48:38;100838.38;;;22.26;100.00
22261;BME280;11299;43.202;27.920;2022-09-01T02:51:07;100812.03;;;22.14;100.00
22261;BME280;11299;43.202;27.920;2022-09-01T02:53:34;100836.75;;;22.25;100.00
22261;BME280;11299;43.202;27.920;2022-09-01T02:56:02;100828.94;;;22.22;100.00
22261;BME280;11299;43.202;27.920;2022-09-01T02:58:30;100843.19;;;22.26;100.00
22261;BME280;11299;43.202;27.920;2022-09-01T03:01:17;100709.66;;;21.45;100.00
22261;BME280;11299;43.202;27.920;2022-09-01T03:03:47;100690.75;;;21.37;100.00
22261;BME280;11299;43.202;27.920;2022-09-01T03:06:13;100769.47;;;21.59;100.00
22261;BME280;11299;43.202;27.920;2022-09-01T03:08:39;100833.25;;;22.20;100.00
22261;BME280;11299;43.202;27.920;2022-09-01T03:11:08;100709.81;;;21.40;100.00
22261;BME280;11299;43.202;27.920;2022-09-01T03:13:37;100780.63;;;21.81;100.00
22261;BME280;11299;43.202;27.920;2022-09-01T03:16:04;100815.97;;;21.65;100.00
22261;BME280;11299;43.202;27.920;2022-09-01T03:18:29;100824.44;;;22.04;100.00
22261;BME280;11299;43.202;27.920;2022-09-01T03:20:55;100791.69;;;21.78;100.00
22261;BME280;11299;43.202;27.920;2022-09-01T03:23:22;100842.97;;;22.05;100.00
22261;BME280;11299;43.202;27.920;2022-09-01T03:25:50;100721.50;;;21.25;100.00
22261;BME280;11299;43.202;27.920;2022-09-01T03:28:16;100826.53;;;21.82;100.00
22261;BME280;11299;43.202;27.920;2022-09-01T03:30:47;100870.06;;;21.84;100.00
22261;BME280;11299;43.202;27.920;2022-09-01T03:33:14;100857.00;;;21.88;100.00
22261;BME280;11299;43.202;27.920;2022-09-01T03:35:42;100850.69;;;21.83;100.00
22261;BME280;11299;43.202;27.920;2022-09-01T03:38:08;100859.47;;;21.81;100.00
22261;BME280;11299;43.202;27.920;2022-09-01T03:40:35;100852.78;;;21.77;100.00
22261;BME280;11299;43.202;27.920;2022-09-01T03:43:03;100762.69;;;21.29;100.00
22261;BME280;11299;43.202;27.920;2022-09-01T03:45:30;100852.78;;;21.77;100.00
22261;BME280;11299;43.202;27.920;2022-09-01T03:48:00;100846.66;;;21.75;100.00
22261;BME280;11299;43.202;27.920;2022-09-01T03:50:38;100835.16;;;21.94;100.00
22261;BME280;11299;43.202;27.920;2022-09-01T03:53:10;100524.38;;;19.95;100.00
22261;BME280;11299;43.202;27.920;2022-09-01T03:55:36;100848.06;;;21.86;100.00
22261;BME280;11299;43.202;27.920;2022-09-01T03:58:08;100855.03;;;21.97;100.00
22261;BME280;11299;43.202;27.920;2022-09-01T04:00:41;100826.94;;;21.75;100.00
22261;BME280;11299;43.202;27.920;2022-09-01T04:03:09;100834.84;;;21.95;100.00
22261;BME280;11299;43.202;27.920;2022-09-01T04:05:37;100823.56;;;21.87;100.00
22261;BME280;11299;43.202;27.920;2022-09-01T04:08:06;100799.81;;;21.79;100.00
22261;BME280;11299;43.202;27.920;2022-09-01T04:10:37;100887.75;;;22.15;100.00
22261;BME280;11299;43.202;27.920;2022-09-01T04:13:06;100848.94;;;21.95;100.00
22261;BME280;11299;43.202;27.920;2022-09-01T04:15:36;100871.34;;;22.17;100.00
22261;BME280;11299;43.202;27.920;2022-09-01T04:18:03;100716.75;;;21.42;100.00
22261;BME280;11299;43.202;27.920;2022-09-01T04:20:39;100709.63;;;21.36;100.00
22261;BME280;11299;43.202;27.920;2022-09-01T04:23:29;100852.97;;;22.28;100.00
22261;BME280;11299;43.202;27.920;2022-09-01T04:26:00;100866.41;;;22.31;100.00
22261;BME280;11299;43.202;27.920;2022-09-01T04:28:35;100859.63;;;22.32;100.00
22261;BME280;11299;43.202;27.920;2022-09-01T04:31:04;100885.78;;;22.24;100.00
22261;BME280;11299;43.202;27.920;2022-09-01T04:33:31;100849.34;;;22.36;100.00
22261;BME280;11299;43.202;27.920;2022-09-01T04:36:25;100849.03;;;22.46;100.00
22261;BME280;11299;43.202;27.920;2022-09-01T04:38:58;100842.41;;;22.42;100.00
22261;BME280;11299;43.202;27.920;2022-09-01T04:41:30;100820.47;;;22.22;100.00
22261;BME280;11299;43.202;27.920;2022-09-01T04:43:58;100889.94;;;22.35;100.00
22261;BME280;11299;43.202;27.920;2022-09-01T04:46:25;100809.72;;;22.24;100.00
22261;BME280;11299;43.202;27.920;2022-09-01T04:48:53;100840.41;;;22.52;100.00
22261;BME280;11299;43.202;27.920;2022-09-01T04:51:19;100801.44;;;22.45;100.00
22261;BME280;11299;43.202;27.920;2022-09-01T04:53:46;100842.94;;;22.79;100.00
22261;BME280;11299;43.202;27.920;2022-09-01T04:56:18;100711.94;;;22.08;100.00
22261;BME280;11299;43.202;27.920;2022-09-01T04:58:45;100811.59;;;22.72;100.00
22261;BME280;11299;43.202;27.920;2022-09-01T05:01:17;100829.81;;;22.83;100.00
22261;BME280;11299;43.202;27.920;2022-09-01T05:03:44;100835.94;;;23.10;100.00
22261;BME280;11299;43.202;27.920;2022-09-01T05:06:18;100725.19;;;22.41;100.00
22261;BME280;11299;43.202;27.920;2022-09-01T05:08:44;100816.03;;;23.07;100.00
22261;BME280;11299;43.202;27.920;2022-09-01T05:11:12;100841.88;;;23.26;100.00
22261;BME280;11299;43.202;27.920;2022-09-01T05:13:42;100829.78;;;23.17;100.00
22261;BME280;11299;43.202;27.920;2022-09-01T05:16:10;100828.25;;;23.28;100.00
22261;BME280;11299;43.202;27.920;2022-09-01T05:18:41;100842.34;;;23.45;100.00
22261;BME280;11299;43.202;27.920;2022-09-01T05:21:12;100841.13;;;23.63;100.00
22261;BME280;11299;43.202;27.920;2022-09-01T05:23:41;100816.56;;;23.64;100.00
22261;BME280;11299;43.202;27.920;2022-09-01T05:26:16;100712.81;;;23.14;100.00
22261;BME280;11299;43.202;27.920;2022-09-01T05:28:43;100835.81;;;23.99;100.00
22261;BME280;11299;43.202;27.920;2022-09-01T05:31:09;100835.63;;;24.13;100.00
22261;BME280;11299;43.202;27.920;2022-09-01T05:33:35;100780.47;;;23.98;100.00
22261;BME280;11299;43.202;27.920;2022-09-01T05:36:02;100760.34;;;24.08;100.00
22261;BME280;11299;43.202;27.920;2022-09-01T05:38:35;100819.78;;;24.62;100.00
22261;BME280;11299;43.202;27.920;2022-09-01T05:41:03;100835.94;;;24.82;100.00
22261;BME280;11299;43.202;27.920;2022-09-01T05:43:33;100808.84;;;24.81;100.00
22261;BME280;11299;43.202;27.920;2022-09-01T05:45:59;100827.91;;;25.04;100.00
22261;BME280;11299;43.202;27.920;2022-09-01T05:48:26;100693.13;;;24.35;100.00
22261;BME280;11299;43.202;27.920;2022-09-01T05:50:55;100835.19;;;25.38;100.00
22261;BME280;11299;43.202;27.920;2022-09-01T05:53:26;100832.91;;;25.52;100.00
22261;BME280;11299;43.202;27.920;2022-09-01T05:55:53;100868.09;;;25.63;100.00
22261;BME280;11299;43.202;27.920;2022-09-01T05:58:25;100724.75;;;25.14;100.00
22261;BME280;11299;43.202;27.920;2022-09-01T06:00:53;100736.81;;;25.23;100.00
22261;BME280;11299;43.202;27.920;2022-09-01T06:03:21;100821.63;;;26.00;100.00
22261;BME280;11299;43.202;27.920;2022-09-01T06:05:48;100712.31;;;25.51;100.00
22261;BME280;11299;43.202;27.920;2022-09-01T06:08:19;100835.78;;;26.37;100.00
22261;BME280;11299;43.202;27.920;2022-09-01T06:10:46;100829.38;;;26.52;100.00
22261;BME280;11299;43.202;27.920;2022-09-01T06:13:14;100829.38;;;26.52;100.00
22261;BME280;11299;43.202;27.920;2022-09-01T06:15:42;100715.59;;;26.01;100.00
22261;BME280;11299;43.202;27.920;2022-09-01T06:18:11;100818.72;;;26.73;100.00
22261;BME280;11299;43.202;27.920;2022-09-01T06:20:38;100799.06;;;26.80;100.00
22261;BME280;11299;43.202;27.920;2022-09-01T06:23:08;100843.06;;;27.14;100.00
22261;BME280;11299;43.202;27.920;2022-09-01T06:25:37;100702.84;;;26.47;100.00
22261;BME280;11299;43.202;27.920;2022-09-01T06:28:04;100731.31;;;26.78;100.00
22261;BME280;11299;43.202;27.920;2022-09-01T06:30:30;100829.31;;;27.59;100.00
22261;BME280;11299;43.202;27.920;2022-09-01T06:32:57;100831.44;;;27.62;100.00
22261;BME280;11299;43.202;27.920;2022-09-01T06:35:25;100764.16;;;27.35;100.00
22261;BME280;11299;43.202;27.920;2022-09-01T06:37:54;100736.78;;;27.42;100.00
22261;BME280;11299;43.202;27.920;2022-09-01T06:40:21;100836.03;;;28.13;100.00
22261;BME280;11299;43.202;27.920;2022-09-01T06:42:50;100845.63;;;28.40;100.00
22261;BME280;11299;43.202;27.920;2022-09-01T06:45:19;100849.81;;;28.46;100.00
22261;BME280;11299;43.202;27.920;2022-09-01T06:47:46;100518.34;;;26.71;100.00
22261;BME280;11299;43.202;27.920;2022-09-01T06:50:18;100847.50;;;28.67;100.00
22261;BME280;11299;43.202;27.920;2022-09-01T06:52:47;100853.94;;;28.83;100.00
22261;BME280;11299;43.202;27.920;2022-09-01T06:55:15;100854.72;;;28.99;100.00
22261;BME280;11299;43.202;27.920;2022-09-01T06:57:42;100797.78;;;28.80;100.00
22261;BME280;11299;43.202;27.920;2022-09-01T07:00:13;100841.69;;;29.17;99.60
22261;BME280;11299;43.202;27.920;2022-09-01T07:02:44;100826.84;;;29.08;98.19
22261;BME280;11299;43.202;27.920;2022-09-01T07:05:11;100719.03;;;28.49;99.25
22261;BME280;11299;43.202;27.920;2022-09-01T07:07:36;100775.34;;;28.98;98.04
22261;BME280;11299;43.202;27.920;2022-09-01T07:10:04;100839.25;;;29.57;97.99
22261;BME280;11299;43.202;27.920;2022-09-01T07:12:30;100848.78;;;29.88;95.44
22261;BME280;11299;43.202;27.920;2022-09-01T07:14:56;100860.56;;;30.09;94.55
22261;BME280;11299;43.202;27.920;2022-09-01T07:17:22;100870.19;;;30.01;93.53
22261;BME280;11299;43.202;27.920;2022-09-01T07:19:49;100845.19;;;30.17;92.49
22261;BME280;11299;43.202;27.920;2022-09-01T07:22:15;100872.31;;;29.85;93.85
22261;BME280;11299;43.202;27.920;2022-09-01T07:24:40;100848.81;;;29.68;93.99
22261;BME280;11299;43.202;27.920;2022-09-01T07:27:06;100834.28;;;29.54;95.57
22261;BME280;11299;43.202;27.920;2022-09-01T07:29:33;100848.16;;;29.56;96.06
22261;BME280;11299;43.202;27.920;2022-09-01T07:31:59;100869.47;;;29.85;97.94
22261;BME280;11299;43.202;27.920;2022-09-01T07:34:27;100857.72;;;29.86;96.25
22261;BME280;11299;43.202;27.920;2022-09-01T07:36:52;100849.94;;;29.64;95.43
22261;BME280;11299;43.202;27.920;2022-09-01T07:39:20;100869.06;;;29.83;98.27
22261;BME280;11299;43.202;27.920;2022-09-01T07:41:46;100872.09;;;29.71;98.04
22261;BME280;11299;43.202;27.920;2022-09-01T07:44:12;100853.94;;;29.59;99.24
22261;BME280;11299;43.202;27.920;2022-09-01T07:46:40;100785.31;;;29.07;98.70
22261;BME280;11299;43.202;27.920;2022-09-01T07:49:06;100884.22;;;29.67;100.00
22261;BME280;11299;43.202;27.920;2022-09-01T07:51:32;100882.09;;;29.84;100.00
22261;BME280;11299;43.202;27.920;2022-09-01T07:53:59;100883.31;;;29.83;99.78
22261;BME280;11299;43.202;27.920;2022-09-01T07:56:27;100868.22;;;30.05;100.00
22261;BME280;11299;43.202;27.920;2022-09-01T07:58:54;100898.09;;;30.33;100.00
22261;BME280;11299;43.202;27.920;2022-09-01T08:01:23;100862.81;;;30.22;100.00
22261;BME280;11299;43.202;27.920;2022-09-01T08:03:53;100870.94;;;30.43;100.00
22261;BME280;11299;43.202;27.920;2022-09-01T08:06:20;100893.63;;;30.36;100.00
22261;BME280;11299;43.202;27.920;2022-09-01T08:08:48;100838.22;;;30.37;99.07
22261;BME280;11299;43.202;27.920;2022-09-01T08:11:19;100876.19;;;30.41;100.00
22261;BME280;11299;43.202;27.920;2022-09-01T08:13:45;100769.81;;;29.69;100.00
22261;BME280;11299;43.202;27.920;2022-09-01T08:16:11;100865.47;;;30.34;100.00
22261;BME280;11299;43.202;27.920;2022-09-01T08:18:39;100817.53;;;29.95;100.00
22261;BME280;11299;43.202;27.920;2022-09-01T08:21:07;100827.50;;;30.08;100.00
22261;BME280;11299;43.202;27.920;2022-09-01T08:23:33;100759.78;;;29.75;100.00
22261;BME280;11299;43.202;27.920;2022-09-01T08:26:07;100928.50;;;30.48;100.00
22261;BME280;11299;43.202;27.920;2022-09-01T08:28:33;100856.31;;;30.48;100.00
22261;BME280;11299;43.202;27.920;2022-09-01T08:30:59;100851.69;;;30.66;99.43
22261;BME280;11299;43.202;27.920;2022-09-01T08:33:25;100848.59;;;30.78;97.36
22261;BME280;11299;43.202;27.920;2022-09-01T08:35:51;100845.31;;;30.76;97.96
22261;BME280;11299;43.202;27.920;2022-09-01T08:38:17;100881.16;;;30.74;98.99
22261;BME280;11299;43.202;27.920;2022-09-01T08:40:51;100833.03;;;30.46;98.61
22261;BME280;11299;43.202;27.920;2022-09-01T08:46:33;100840.47;;;30.80;96.91
22261;BME280;11299;43.202;27.920;2022-09-01T08:49:03;100816.88;;;30.83;97.58
22261;BME280;11299;43.202;27.920;2022-09-01T08:51:37;100836.06;;;31.16;96.85
22261;BME280;11299;43.202;27.920;2022-09-01T08:54:14;100844.41;;;31.31;96.71
22261;BME280;11299;43.202;27.920;2022-09-01T08:56:43;100822.50;;;31.42;94.38
22261;BME280;11299;43.202;27.920;2022-09-01T08:59:10;100839.88;;;31.60;93.70
22261;BME280;11299;43.202;27.920;2022-09-01T09:01:54;100849.31;;;31.64;94.61
22261;BME280;11299;43.202;27.920;2022-09-01T09:10:02;100834.09;;;31.97;92.63
22261;BME280;11299;43.202;27.920;2022-09-01T09:13:11;100831.78;;;32.09;92.40
22261;BME280;11299;43.202;27.920;2022-09-01T09:15:46;100831.97;;;32.34;90.63
22261;BME280;11299;43.202;27.920;2022-09-01T09:18:43;100825.13;;;32.49;90.38
22261;BME280;11299;43.202;27.920;2022-09-01T09:21:18;100843.63;;;32.08;91.94
22261;BME280;11299;43.202;27.920;2022-09-01T09:23:48;100830.56;;;32.14;92.76
22261;BME280;11299;43.202;27.920;2022-09-01T09:26:15;100828.16;;;32.19;92.88
22261;BME280;11299;43.202;27.920;2022-09-01T09:28:42;100820.94;;;32.36;91.08
22261;BME280;11299;43.202;27.920;2022-09-01T09:31:27;100814.06;;;31.97;91.92
22261;BME280;11299;43.202;27.920;2022-09-01T09:33:53;100722.09;;;31.47;93.92
22261;BME280;11299;43.202;27.920;2022-09-01T09:36:22;100809.31;;;32.11;93.57
22261;BME280;11299;43.202;27.920;2022-09-01T09:39:16;100818.63;;;32.59;92.79
22261;BME280;11299;43.202;27.920;2022-09-01T09:41:59;100815.44;;;32.71;90.48
22261;BME280;11299;43.202;27.920;2022-09-01T09:44:29;100794.47;;;32.50;90.75
22261;BME280;11299;43.202;27.920;2022-09-01T09:46:55;100661.94;;;31.33;92.98
22261;BME280;11299;43.202;27.920;2022-09-01T09:49:23;100811.91;;;32.34;93.86
22261;BME280;11299;43.202;27.920;2022-09-01T09:52:12;100820.81;;;32.22;95.67
22261;BME280;11299;43.202;27.920;2022-09-01T09:55:02;100808.78;;;32.50;93.33
22261;BME280;11299;43.202;27.920;2022-09-01T09:57:30;100811.72;;;32.64;93.62
22261;BME280;11299;43.202;27.920;2022-09-01T10:04:52;100838.09;;;32.36;95.70
22261;BME280;11299;43.202;27.920;2022-09-01T10:07:26;100691.22;;;31.64;97.45
22261;BME280;11299;43.202;27.920;2022-09-01T10:09:55;100815.00;;;32.08;98.46
22261;BME280;11299;43.202;27.920;2022-09-01T10:12:23;100686.41;;;31.31;99.63
22261;BME280;11299;43.202;27.920;2022-09-01T10:14:56;100814.16;;;32.04;98.30
22261;BME280;11299;43.202;27.920;2022-09-01T10:18:01;100818.59;;;31.58;100.00
22261;BME280;11299;43.202;27.920;2022-09-01T10:20:21;100800.59;;;31.57;100.00
22261;BME280;11299;43.202;27.920;2022-09-01T10:22:48;100805.78;;;31.85;100.00
22261;BME280;11299;43.202;27.920;2022-09-01T10:25:21;100801.84;;;32.00;100.00
22261;BME280;11299;43.202;27.920;2022-09-01T10:28:01;100799.59;;;32.26;99.03
22261;BME280;11299;43.202;27.920;2022-09-01T10:30:30;100808.81;;;32.53;97.68
22261;BME280;11299;43.202;27.920;2022-09-01T10:32:58;100708.00;;;32.23;97.36
22261;BME280;11299;43.202;27.920;2022-09-01T10:35:35;100812.69;;;32.92;100.00
22261;BME280;11299;43.202;27.920;2022-09-01T10:38:07;100476.28;;;30.86;100.00
22261;BME280;11299;43.202;27.920;2022-09-01T10:40:42;100825.34;;;32.91;100.00
22261;BME280;11299;43.202;27.920;2022-09-01T10:45:47;100829.00;;;32.81;100.00
22261;BME280;11299;43.202;27.920;2022-09-01T10:50:45;100816.31;;;32.86;100.00
22261;BME280;11299;43.202;27.920;2022-09-01T10:56:04;100701.28;;;32.66;100.00
22261;BME280;11299;43.202;27.920;2022-09-01T10:59:05;100728.41;;;32.97;100.00
22261;BME280;11299;43.202;27.920;2022-09-01T11:02:17;100822.75;;;33.55;100.00
22261;BME280;11299;43.202;27.920;2022-09-01T11:13:23;100839.97;;;31.71;100.00
22261;BME280;11299;43.202;27.920;2022-09-01T11:15:54;100811.63;;;31.99;100.00
22261;BME280;11299;43.202;27.920;2022-09-01T11:18:27;100815.78;;;32.05;100.00
22261;BME280;11299;43.202;27.920;2022-09-01T11:21:18;100789.88;;;32.42;100.00
22261;BME280;11299;43.202;27.920;2022-09-01T11:23:48;100785.47;;;32.48;100.00
22261;BME280;11299;43.202;27.920;2022-09-01T11:28:57;100777.00;;;32.72;100.00
22261;BME280;11299;43.202;27.920;2022-09-01T11:31:32;100685.09;;;32.23;100.00
22261;BME280;11299;43.202;27.920;2022-09-01T11:34:11;100775.31;;;32.61;100.00
22261;BME280;11299;43.202;27.920;2022-09-01T11:42:02;100799.91;;;32.72;100.00
22261;BME280;11299;43.202;27.920;2022-09-01T11:47:36;100789.19;;;32.59;100.00
22261;BME280;11299;43.202;27.920;2022-09-01T11:52:40;100802.53;;;31.90;100.00
22261;BME280;11299;43.202;27.920;2022-09-01T11:55:06;100679.47;;;31.28;100.00
22261;BME280;11299;43.202;27.920;2022-09-01T11:57:38;100802.72;;;32.04;100.00
22261;BME280;11299;43.202;27.920;2022-09-01T12:00:08;100789.28;;;31.68;100.00
22261;BME280;11299;43.202;27.920;2022-09-01T12:02:42;100797.75;;;31.57;100.00
22261;BME280;11299;43.202;27.920;2022-09-01T12:05:33;100796.50;;;31.55;100.00
22261;BME280;11299;43.202;27.920;2022-09-01T12:08:03;100827.84;;;31.11;100.00
22261;BME280;11299;43.202;27.920;2022-09-01T12:10:34;100828.41;;;30.90;100.00
22261;BME280;11299;43.202;27.920;2022-09-01T12:15:30;100669.34;;;29.27;100.00
22261;BME280;11299;43.202;27.920;2022-09-01T12:18:18;100814.16;;;29.66;100.00
22261;BME280;11299;43.202;27.920;2022-09-01T12:20:47;100794.81;;;29.34;100.00
22261;BME280;11299;43.202;27.920;2022-09-01T12:23:32;100783.97;;;29.20;100.00
22261;BME280;11299;43.202;27.920;2022-09-01T12:26:01;100673.03;;;28.09;100.00
22261;BME280;11299;43.202;27.920;2022-09-01T12:28:29;100812.28;;;28.94;100.00
22261;BME280;11299;43.202;27.920;2022-09-01T12:30:57;100810.94;;;28.88;100.00
22261;BME280;11299;43.202;27.920;2022-09-01T12:33:25;100792.06;;;28.61;100.00
22261;BME280;11299;43.202;27.920;2022-09-01T12:35:51;100808.69;;;28.59;100.00
22261;BME280;11299;43.202;27.920;2022-09-01T12:38:35;100795.84;;;28.49;100.00
22261;BME280;11299;43.202;27.920;2022-09-01T12:41:01;100733.88;;;28.24;100.00
22261;BME280;11299;43.202;27.920;2022-09-01T12:43:38;100806.31;;;28.99;100.00
22261;BME280;11299;43.202;27.920;2022-09-01T12:46:06;100842.88;;;29.35;100.00
22261;BME280;11299;43.202;27.920;2022-09-01T12:48:36;100825.69;;;29.74;100.00
22261;BME280;11299;43.202;27.920;2022-09-01T12:51:23;100826.53;;;29.97;100.00
22261;BME280;11299;43.202;27.920;2022-09-01T12:53:52;100827.28;;;29.94;100.00
22261;BME280;11299;43.202;27.920;2022-09-01T12:56:22;100781.38;;;30.02;100.00
22261;BME280;11299;43.202;27.920;2022-09-01T12:59:06;100701.38;;;29.92;100.00
22261;BME280;11299;43.202;27.920;2022-09-01T13:01:33;100739.38;;;30.25;100.00
22261;BME280;11299;43.202;27.920;2022-09-01T13:04:29;100823.22;;;30.43;100.00
22261;BME280;11299;43.202;27.920;2022-09-01T13:07:04;100817.88;;;30.16;100.00
22261;BME280;11299;43.202;27.920;2022-09-01T13:12:19;100872.75;;;30.09;100.00
22261;BME280;11299;43.202;27.920;2022-09-01T13:14:45;100835.19;;;29.81;100.00
22261;BME280;11299;43.202;27.920;2022-09-01T13:17:11;100836.69;;;29.52;100.00
22261;BME280;11299;43.202;27.920;2022-09-01T13:19:37;100838.06;;;29.39;100.00
22261;BME280;11299;43.202;27.920;2022-09-01T13:22:04;100837.03;;;29.28;100.00
22261;BME280;11299;43.202;27.920;2022-09-01T13:24:30;100843.63;;;29.32;100.00
22261;BME280;11299;43.202;27.920;2022-09-01T13:26:56;100835.53;;;29.34;100.00
22261;BME280;11299;43.202;27.920;2022-09-01T13:29:23;100840.06;;;29.16;100.00
22261;BME280;11299;43.202;27.920;2022-09-01T13:31:49;100844.53;;;29.36;100.00
22261;BME280;11299;43.202;27.920;2022-09-01T13:34:14;100802.78;;;28.87;100.00
22261;BME280;11299;43.202;27.920;2022-09-01T13:36:40;100848.84;;;29.11;100.00
22261;BME280;11299;43.202;27.920;2022-09-01T13:39:05;100833.13;;;28.79;100.00